UAL2476 KSFO-KSAN
Flight info
| Callsign | UAL2476 |
|---|---|
| Flight time | N/A |
| Altitude | 35000 |
| Route | WESLA5 YYUNG LAX COMIX2 |
| Aircraft | A21N/M-SDE2E3FGHIRWXY/LB1 |
Departure
| Time | N/A |
|---|---|
| Airport | San Francisco International Airport (KSFO) |
Arrival
| Time | 2026-05-04 13:54 |
|---|---|
| Airport | San Diego International Airport (KSAN) |
| Time | Latitude | Longitude | Altitude | Speed | Heading |
|---|---|---|---|---|---|
| 2026-05-04 13:10 | 35.51748 | -121.07106 | 34998 ft | 478 kts | 136° |
| 2026-05-04 13:10 | 35.49820 | -121.03834 | 35018 ft | 479 kts | 135° |
| 2026-05-04 13:11 | 35.45953 | -120.97144 | 35049 ft | 479 kts | 134° |
| 2026-05-04 13:11 | 35.42080 | -120.90492 | 35061 ft | 478 kts | 135° |
| 2026-05-04 13:12 | 35.38862 | -120.84976 | 35059 ft | 479 kts | 135° |
| 2026-05-04 13:12 | 35.34361 | -120.77253 | 35045 ft | 479 kts | 135° |
| 2026-05-04 13:13 | 35.31108 | -120.71679 | 35059 ft | 479 kts | 135° |
| 2026-05-04 13:13 | 35.27252 | -120.65080 | 35060 ft | 479 kts | 135° |
| 2026-05-04 13:14 | 35.23378 | -120.58432 | 35060 ft | 479 kts | 135° |
| 2026-05-04 13:14 | 35.19474 | -120.51781 | 35046 ft | 481 kts | 137° |
| 2026-05-04 13:15 | 35.15564 | -120.45133 | 35050 ft | 482 kts | 136° |
| 2026-05-04 13:15 | 35.11672 | -120.38526 | 35048 ft | 481 kts | 137° |
| 2026-05-04 13:16 | 35.07761 | -120.31896 | 35053 ft | 481 kts | 137° |
| 2026-05-04 13:16 | 35.03835 | -120.25252 | 35049 ft | 481 kts | 139° |
| 2026-05-04 13:17 | 34.99905 | -120.18626 | 35062 ft | 482 kts | 139° |
| 2026-05-04 13:17 | 34.95991 | -120.12024 | 35065 ft | 482 kts | 139° |
| 2026-05-04 13:18 | 34.92048 | -120.05397 | 35025 ft | 483 kts | 140° |
| 2026-05-04 13:18 | 34.88091 | -119.98745 | 35035 ft | 485 kts | 140° |
| 2026-05-04 13:19 | 34.84124 | -119.92097 | 35052 ft | 485 kts | 140° |
| 2026-05-04 13:19 | 34.80178 | -119.85501 | 35047 ft | 484 kts | 140° |
| 2026-05-04 13:20 | 34.76198 | -119.78864 | 34983 ft | 485 kts | 141° |
| 2026-05-04 13:20 | 34.72244 | -119.72268 | 35031 ft | 482 kts | 141° |
| 2026-05-04 13:21 | 34.68286 | -119.65688 | 35056 ft | 483 kts | 141° |
| 2026-05-04 13:21 | 34.64312 | -119.59099 | 35039 ft | 483 kts | 141° |
| 2026-05-04 13:22 | 34.60362 | -119.52555 | 35025 ft | 482 kts | 142° |
| 2026-05-04 13:22 | 34.56391 | -119.45982 | 35036 ft | 483 kts | 141° |
| 2026-05-04 13:23 | 34.52410 | -119.39398 | 35033 ft | 483 kts | 141° |
| 2026-05-04 13:23 | 34.48424 | -119.32837 | 35026 ft | 482 kts | 142° |
| 2026-05-04 13:24 | 34.44443 | -119.26299 | 35009 ft | 481 kts | 142° |
| 2026-05-04 13:24 | 34.40505 | -119.19827 | 35020 ft | 480 kts | 142° |
| 2026-05-04 13:25 | 34.34550 | -119.10077 | 35042 ft | 479 kts | 142° |
| 2026-05-04 13:25 | 34.30570 | -119.03591 | 35042 ft | 479 kts | 142° |
| 2026-05-04 13:26 | 34.26627 | -118.97144 | 35032 ft | 477 kts | 142° |
| 2026-05-04 13:26 | 34.22671 | -118.90699 | 35028 ft | 476 kts | 142° |
| 2026-05-04 13:27 | 34.18719 | -118.84270 | 35024 ft | 476 kts | 142° |
| 2026-05-04 13:27 | 34.14757 | -118.77848 | 35023 ft | 476 kts | 142° |
| 2026-05-04 13:28 | 34.10824 | -118.71469 | 35011 ft | 476 kts | 142° |
| 2026-05-04 13:28 | 34.06855 | -118.65066 | 35028 ft | 476 kts | 142° |
| 2026-05-04 13:29 | 34.02897 | -118.58677 | 35035 ft | 475 kts | 142° |
| 2026-05-04 13:29 | 33.98921 | -118.52268 | 35046 ft | 477 kts | 142° |
| 2026-05-04 13:30 | 33.94952 | -118.45873 | 35028 ft | 475 kts | 142° |
| 2026-05-04 13:30 | 33.90808 | -118.39920 | 34934 ft | 457 kts | 148° |
| 2026-05-04 13:31 | 33.88646 | -118.37128 | 34149 ft | 456 kts | 149° |
| 2026-05-04 13:31 | 33.86464 | -118.34340 | 33356 ft | 457 kts | 148° |
| 2026-05-04 13:31 | 33.84284 | -118.31536 | 32659 ft | 457 kts | 148° |
| 2026-05-04 13:31 | 33.82123 | -118.28745 | 32052 ft | 454 kts | 148° |
| 2026-05-04 13:32 | 33.79973 | -118.25973 | 31467 ft | 452 kts | 148° |
| 2026-05-04 13:32 | 33.77835 | -118.23217 | 30893 ft | 449 kts | 147° |
| 2026-05-04 13:32 | 33.75741 | -118.20496 | 30344 ft | 447 kts | 147° |
| 2026-05-04 13:32 | 33.73655 | -118.17743 | 29714 ft | 445 kts | 147° |
| 2026-05-04 13:33 | 33.71575 | -118.14998 | 29075 ft | 442 kts | 146° |
| 2026-05-04 13:33 | 33.69513 | -118.12285 | 28478 ft | 438 kts | 146° |
| 2026-05-04 13:33 | 33.67461 | -118.09588 | 27904 ft | 434 kts | 146° |
| 2026-05-04 13:33 | 33.65434 | -118.06924 | 27343 ft | 430 kts | 146° |
| 2026-05-04 13:34 | 33.63420 | -118.04280 | 26742 ft | 427 kts | 146° |
| 2026-05-04 13:34 | 33.61420 | -118.01663 | 26163 ft | 424 kts | 145° |
| 2026-05-04 13:34 | 33.59430 | -117.99061 | 25629 ft | 420 kts | 145° |
| 2026-05-04 13:34 | 33.57457 | -117.96485 | 25096 ft | 417 kts | 145° |
| 2026-05-04 13:35 | 33.55523 | -117.93966 | 24557 ft | 413 kts | 146° |
| 2026-05-04 13:35 | 33.51506 | -117.89212 | 23440 ft | 400 kts | 148° |
| 2026-05-04 13:35 | 33.49512 | -117.86903 | 22835 ft | 396 kts | 148° |
| 2026-05-04 13:36 | 33.47546 | -117.84627 | 22258 ft | 391 kts | 148° |
| 2026-05-04 13:36 | 33.45595 | -117.82369 | 21681 ft | 389 kts | 148° |
| 2026-05-04 13:36 | 33.43639 | -117.80151 | 21111 ft | 384 kts | 149° |
| 2026-05-04 13:36 | 33.41660 | -117.78020 | 20605 ft | 381 kts | 149° |
| 2026-05-04 13:37 | 33.39689 | -117.75920 | 20109 ft | 378 kts | 149° |
| 2026-05-04 13:37 | 33.37729 | -117.73830 | 19641 ft | 375 kts | 149° |
| 2026-05-04 13:37 | 33.35790 | -117.71758 | 19205 ft | 373 kts | 149° |
| 2026-05-04 13:37 | 33.34508 | -117.70394 | 18915 ft | 372 kts | 149° |
| 2026-05-04 13:38 | 33.31939 | -117.67651 | 18293 ft | 367 kts | 148° |
| 2026-05-04 13:38 | 33.30063 | -117.65647 | 17803 ft | 365 kts | 148° |
| 2026-05-04 13:38 | 33.28171 | -117.63634 | 17327 ft | 365 kts | 148° |
| 2026-05-04 13:38 | 33.26272 | -117.61615 | 16868 ft | 365 kts | 147° |
| 2026-05-04 13:39 | 33.24376 | -117.59596 | 16410 ft | 365 kts | 148° |
| 2026-05-04 13:39 | 33.22473 | -117.57597 | 15991 ft | 364 kts | 147° |
| 2026-05-04 13:39 | 33.20567 | -117.55599 | 15569 ft | 364 kts | 147° |
| 2026-05-04 13:39 | 33.18663 | -117.53601 | 15134 ft | 364 kts | 147° |
| 2026-05-04 13:40 | 33.16757 | -117.51599 | 14692 ft | 365 kts | 147° |
| 2026-05-04 13:40 | 33.14841 | -117.49588 | 14239 ft | 366 kts | 146° |
| 2026-05-04 13:40 | 33.12897 | -117.47700 | 13804 ft | 363 kts | 152° |
| 2026-05-04 13:40 | 33.10824 | -117.45957 | 13321 ft | 363 kts | 152° |
| 2026-05-04 13:41 | 33.08760 | -117.44246 | 12861 ft | 359 kts | 152° |
| 2026-05-04 13:41 | 33.06728 | -117.42561 | 12424 ft | 352 kts | 152° |
| 2026-05-04 13:41 | 33.04741 | -117.40907 | 11980 ft | 345 kts | 152° |
| 2026-05-04 13:42 | 33.00884 | -117.37666 | 11150 ft | 335 kts | 151° |
| 2026-05-04 13:42 | 32.99000 | -117.36087 | 10785 ft | 331 kts | 151° |
| 2026-05-04 13:42 | 32.97150 | -117.34532 | 10560 ft | 319 kts | 151° |
| 2026-05-04 13:42 | 32.95780 | -117.33383 | 10429 ft | 309 kts | 151° |
| 2026-05-04 13:43 | 32.94055 | -117.31934 | 10273 ft | 296 kts | 151° |
| 2026-05-04 13:43 | 32.92406 | -117.30551 | 10152 ft | 284 kts | 151° |
| 2026-05-04 13:43 | 32.91348 | -117.29667 | 9995 ft | 278 kts | 152° |
| 2026-05-04 13:43 | 32.89947 | -117.28505 | 9619 ft | 277 kts | 151° |
| 2026-05-04 13:44 | 32.88364 | -117.27194 | 9177 ft | 277 kts | 150° |
| 2026-05-04 13:44 | 32.86793 | -117.25889 | 8798 ft | 274 kts | 150° |
| 2026-05-04 13:44 | 32.85237 | -117.24598 | 8403 ft | 272 kts | 149° |
| 2026-05-04 13:44 | 32.83689 | -117.23314 | 8038 ft | 269 kts | 149° |
| 2026-05-04 13:45 | 32.82178 | -117.22018 | 7721 ft | 267 kts | 143° |
| 2026-05-04 13:45 | 32.80996 | -117.20323 | 7376 ft | 269 kts | 118° |
| 2026-05-04 13:45 | 32.80394 | -117.18250 | 7040 ft | 269 kts | 105° |
| 2026-05-04 13:45 | 32.79946 | -117.16090 | 6744 ft | 266 kts | 104° |
| 2026-05-04 13:46 | 32.79508 | -117.13976 | 6456 ft | 261 kts | 104° |
| 2026-05-04 13:46 | 32.79061 | -117.11894 | 6108 ft | 258 kts | 105° |
| 2026-05-04 13:46 | 32.78618 | -117.09871 | 5950 ft | 247 kts | 105° |
| 2026-05-04 13:46 | 32.78185 | -117.07905 | 5941 ft | 246 kts | 105° |
| 2026-05-04 13:47 | 32.77749 | -117.05938 | 5952 ft | 246 kts | 105° |
| 2026-05-04 13:47 | 32.77293 | -117.04011 | 5840 ft | 236 kts | 107° |
| 2026-05-04 13:47 | 32.76843 | -117.02181 | 5642 ft | 227 kts | 107° |
| 2026-05-04 13:47 | 32.76404 | -117.00390 | 5338 ft | 223 kts | 107° |
| 2026-05-04 13:48 | 32.75982 | -116.98658 | 5172 ft | 216 kts | 107° |
| 2026-05-04 13:48 | 32.75438 | -116.97080 | 4967 ft | 200 kts | 128° |
| 2026-05-04 13:48 | 32.74397 | -116.96060 | 4664 ft | 191 kts | 152° |
| 2026-05-04 13:48 | 32.73203 | -116.95511 | 4455 ft | 177 kts | 171° |
| 2026-05-04 13:49 | 32.72010 | -116.95463 | 4202 ft | 169 kts | 190° |
| 2026-05-04 13:49 | 32.70898 | -116.95846 | 3934 ft | 166 kts | 208° |
| 2026-05-04 13:49 | 32.69956 | -116.96601 | 3717 ft | 161 kts | 226° |
| 2026-05-04 13:49 | 32.69291 | -116.97598 | 3645 ft | 154 kts | 242° |
| 2026-05-04 13:50 | 32.68879 | -116.98770 | 3574 ft | 154 kts | 258° |
| 2026-05-04 13:50 | 32.68810 | -117.00022 | 3342 ft | 150 kts | 273° |
| 2026-05-04 13:50 | 32.68995 | -117.01243 | 3156 ft | 151 kts | 285° |
| 2026-05-04 13:50 | 32.69304 | -117.02437 | 2899 ft | 151 kts | 286° |
| 2026-05-04 13:51 | 32.69606 | -117.03637 | 2695 ft | 151 kts | 286° |
| 2026-05-04 13:51 | 32.69883 | -117.04822 | 2608 ft | 150 kts | 285° |
| 2026-05-04 13:51 | 32.70173 | -117.06001 | 2329 ft | 148 kts | 287° |
| 2026-05-04 13:51 | 32.70466 | -117.07168 | 2054 ft | 147 kts | 286° |
| 2026-05-04 13:52 | 32.71007 | -117.09398 | 1868 ft | 140 kts | 286° |
| 2026-05-04 13:52 | 32.71278 | -117.10491 | 1645 ft | 139 kts | 286° |
| 2026-05-04 13:52 | 32.71540 | -117.11594 | 1398 ft | 139 kts | 285° |
| 2026-05-04 13:53 | 32.71801 | -117.12702 | 1169 ft | 137 kts | 285° |
| 2026-05-04 13:53 | 32.72057 | -117.13769 | 944 ft | 134 kts | 284° |
| 2026-05-04 13:53 | 32.72319 | -117.14825 | 745 ft | 134 kts | 285° |
| 2026-05-04 13:54 | 32.72851 | -117.16909 | 272 ft | 131 kts | 285° |
| 2026-05-04 13:54 | 32.73109 | -117.17943 | 82 ft | 130 kts | 284° |
| 2026-05-04 13:54 | 32.73454 | -117.19373 | 28 ft | 44 kts | 286° |
| 2026-05-04 13:55 | 32.73528 | -117.19665 | 30 ft | 27 kts | 285° |
| 2026-05-04 13:55 | 32.73503 | -117.20016 | 28 ft | 16 kts | 284° |
| 2026-05-04 13:55 | 32.73541 | -117.20149 | 28 ft | 18 kts | 285° |
| 2026-05-04 13:56 | 32.73572 | -117.20298 | 28 ft | 19 kts | 276° |
| 2026-05-04 13:56 | 32.73582 | -117.20419 | 28 ft | 8 kts | 250° |
| 2026-05-04 13:56 | 32.73485 | -117.20418 | 28 ft | 0 kts | 180° |
| 2026-05-04 13:57 | 32.73472 | -117.20418 | 28 ft | 3 kts | 179° |
| 2026-05-04 13:57 | 32.73471 | -117.20418 | 28 ft | 0 kts | 179° |